Bealach na Ba, United Kingdom
Current Conditions -  °F | °C
As of 3:50 PM on Thursday 30 Oct 2014 (Local Time) from EGPO Reporting Station
Broken Clouds Broken Clouds  
Wind Chill: 54°   Ceiling: 1400
Heat Index: 54°   Visibility: 6mi
Dew Point: 50°   Wind: 12mph
Humidity: 88%   Direction: 160°SSE
Pressure: 29.77"   Gusts: NA
Location:  57.42°N, 5.69°W
Report Text: EGPO 301550Z 16010KT 9999 FEW007 BKN014 12/10 Q1008
Loading
Personal Weather Stations






























Interactive Weather Map
Tropical Storm Tracking
New forecast layout! Learn more

10-Day Weather Forecast

Advertisements
Track Severe Weather on mobile